Time;durP1;ratioP1;P1;durP2;ratioP2;P2;SDS_P1;SDS_P2;PMS_P1;PMS_P2;Temp;Humidity;BMP_temperature;BMP_pressure;BME280_temperature;BME280_humidity;BME280_pressure;Samples;Min_cycle;Max_cycle;Signal;HPM_P1;HPM_P2
2023/08/01 00:00:33;;;;;;;4.05;2.33;;;16.30;99.90;;;;;;5045419;28;20040;-53
2023/08/01 00:02:59;;;;;;;2.60;1.73;;;16.40;99.90;;;;;;5040260;28;20436;-53
2023/08/01 00:05:24;;;;;;;2.88;1.70;;;16.40;99.90;;;;;;5052095;28;20029;-51
2023/08/01 00:07:51;;;;;;;5.55;1.40;;;16.40;99.90;;;;;;5049456;28;20036;-53
2023/08/01 00:10:17;;;;;;;5.88;1.58;;;16.50;99.90;;;;;;5051709;28;20025;-50
2023/08/01 00:12:42;;;;;;;3.20;1.50;;;16.50;99.90;;;;;;5051272;28;20079;-52
2023/08/01 00:15:09;;;;;;;3.25;1.30;;;16.50;99.90;;;;;;5048708;28;20082;-52
2023/08/01 00:17:34;;;;;;;2.30;1.45;;;16.50;99.90;;;;;;5050341;28;20487;-50
2023/08/01 00:20:02;;;;;;;5.53;1.75;;;16.50;99.90;;;;;;5050829;28;20114;-54
2023/08/01 00:22:28;;;;;;;9.00;1.85;;;16.50;99.90;;;;;;5050312;28;20422;-54
2023/08/01 00:24:53;;;;;;;6.07;1.45;;;16.50;99.90;;;;;;5047975;28;20159;-51
2023/08/01 00:27:19;;;;;;;5.45;1.70;;;16.50;99.90;;;;;;5049184;28;20063;-53
2023/08/01 00:29:45;;;;;;;5.50;2.20;;;16.50;99.90;;;;;;5050707;28;20162;-53
2023/08/01 00:32:11;;;;;;;3.55;1.92;;;16.50;99.90;;;;;;5051472;28;20033;-50
2023/08/01 00:34:37;;;;;;;2.60;1.60;;;16.40;99.90;;;;;;5044156;28;20091;-53
2023/08/01 00:37:02;;;;;;;5.07;1.65;;;16.40;99.90;;;;;;5043886;28;20469;-51
2023/08/01 00:39:28;;;;;;;2.85;1.95;;;16.40;99.90;;;;;;5050845;28;20045;-51
2023/08/01 00:41:54;;;;;;;4.75;1.45;;;16.40;99.90;;;;;;5050149;28;20032;-53
2023/08/01 00:44:19;;;;;;;5.88;2.38;;;16.40;99.90;;;;;;5051386;28;20021;-52
2023/08/01 00:46:45;;;;;;;3.75;1.92;;;16.30;99.90;;;;;;5051344;28;20029;-53
2023/08/01 00:49:12;;;;;;;2.65;2.00;;;16.30;99.90;;;;;;5052853;28;20029;-51
2023/08/01 00:51:37;;;;;;;3.50;1.80;;;16.40;99.90;;;;;;5048802;28;20108;-54
2023/08/01 00:54:03;;;;;;;2.70;2.28;;;16.30;99.90;;;;;;5052237;28;20076;-51
2023/08/01 00:56:29;;;;;;;3.47;2.30;;;16.30;99.90;;;;;;5050755;28;20025;-50
2023/08/01 00:58:54;;;;;;;11.73;2.58;;;16.30;99.90;;;;;;5050980;28;20032;-52
2023/08/01 01:01:20;;;;;;;4.70;2.30;;;16.30;99.90;;;;;;5048343;28;20029;-55
2023/08/01 01:03:46;;;;;;;3.22;1.80;;;16.30;99.90;;;;;;5050141;28;20033;-54
2023/08/01 01:06:28;;;;;;;3.80;2.15;;;16.30;99.90;;;;;;5046756;28;20037;-53
2023/08/01 01:08:55;;;;;;;3.33;1.90;;;16.30;99.90;;;;;;5042168;28;20029;-53
2023/08/01 01:11:21;;;;;;;8.55;2.65;;;16.20;99.90;;;;;;5051432;28;20481;-53
2023/08/01 01:13:46;;;;;;;5.20;1.90;;;16.30;99.90;;;;;;5052068;28;20028;-52
2023/08/01 01:16:12;;;;;;;3.10;1.83;;;16.20;99.90;;;;;;5052497;28;20477;-53
2023/08/01 01:18:38;;;;;;;2.40;2.10;;;16.20;99.90;;;;;;5052260;28;20029;-49
2023/08/01 01:21:04;;;;;;;4.00;2.25;;;16.20;99.90;;;;;;5052119;28;20059;-54
2023/08/01 01:23:31;;;;;;;4.45;2.28;;;16.10;99.90;;;;;;5052116;28;20029;-51
2023/08/01 01:25:57;;;;;;;6.80;2.20;;;16.10;99.90;;;;;;5051195;28;20036;-54
2023/08/01 01:28:24;;;;;;;5.97;2.83;;;16.10;99.90;;;;;;5052187;28;20513;-53
2023/08/01 01:30:52;;;;;;;5.17;2.67;;;16.10;99.90;;;;;;5052089;28;20044;-53
2023/08/01 01:33:18;;;;;;;6.10;2.05;;;16.10;99.90;;;;;;5052395;28;20274;-53
2023/08/01 01:35:44;;;;;;;11.20;3.38;;;16.10;99.90;;;;;;5053987;28;20104;-51
2023/08/01 01:38:10;;;;;;;9.43;2.08;;;16.10;99.90;;;;;;5055410;28;20029;-51
2023/08/01 01:40:36;;;;;;;6.45;2.30;;;16.10;99.90;;;;;;5055936;28;20029;-52
2023/08/01 01:43:02;;;;;;;4.63;2.47;;;16.20;99.90;;;;;;5054907;28;20056;-51
2023/08/01 01:45:28;;;;;;;13.68;3.50;;;16.10;99.90;;;;;;5055648;28;20477;-52
2023/08/01 01:47:54;;;;;;;4.18;2.42;;;16.10;99.90;;;;;;5056627;28;20029;-55
2023/08/01 01:50:19;;;;;;;10.05;2.78;;;16.10;99.90;;;;;;5053449;28;20489;-48
2023/08/01 01:52:45;;;;;;;11.10;2.92;;;16.10;99.90;;;;;;5055245;28;20029;-51
2023/08/01 01:55:14;;;;;;;9.77;3.17;;;16.00;99.90;;;;;;5055343;28;20397;-52
2023/08/01 01:57:40;;;;;;;6.13;2.90;;;16.00;99.90;;;;;;5050142;28;20498;-51
2023/08/01 02:00:10;;;;;;;10.43;2.65;;;16.00;99.90;;;;;;5063814;28;20061;-50
2023/08/01 02:02:36;;;;;;;7.53;3.13;;;16.00;99.90;;;;;;5054227;28;20115;-57
2023/08/01 02:05:03;;;;;;;4.30;2.67;;;16.00;99.90;;;;;;5051721;28;20033;-53
2023/08/01 02:07:29;;;;;;;11.48;3.00;;;16.00;99.90;;;;;;5052731;28;20021;-53
2023/08/01 02:09:55;;;;;;;10.80;3.22;;;16.00;99.90;;;;;;5053356;28;20418;-53
2023/08/01 02:12:20;;;;;;;13.38;2.90;;;16.00;99.90;;;;;;5052573;28;20029;-54
2023/08/01 02:14:46;;;;;;;8.20;2.95;;;16.00;99.90;;;;;;5053957;28;20024;-53
2023/08/01 02:17:12;;;;;;;6.80;2.97;;;16.10;99.90;;;;;;5055026;28;20436;-51
2023/08/01 02:19:38;;;;;;;7.53;2.53;;;16.00;99.90;;;;;;5052362;28;20024;-53
2023/08/01 02:22:04;;;;;;;9.70;3.13;;;16.10;99.90;;;;;;5053673;28;20040;-38
2023/08/01 02:24:29;;;;;;;11.15;3.83;;;16.10;99.90;;;;;;5053666;28;20397;-37
2023/08/01 02:26:55;;;;;;;5.85;3.15;;;16.10;99.90;;;;;;5056659;28;20040;-37
2023/08/01 02:29:21;;;;;;;8.32;2.97;;;16.10;99.90;;;;;;5059140;28;20021;-36
2023/08/01 02:31:46;;;;;;;9.52;3.78;;;16.00;99.90;;;;;;5054666;28;20029;-37
2023/08/01 02:34:12;;;;;;;13.10;4.32;;;15.90;99.90;;;;;;5049198;28;20032;-46
2023/08/01 02:36:40;;;;;;;12.90;4.10;;;15.90;99.90;;;;;;5052008;28;20021;-36
2023/08/01 02:39:06;;;;;;;;;;;15.80;99.90;;;;;;5050366;28;20031;-37
2023/08/01 02:41:31;;;;;;;5.38;3.08;;;15.80;99.90;;;;;;5048694;28;19916;-36
2023/08/01 02:43:57;;;;;;;8.23;2.78;;;15.80;99.90;;;;;;5059247;28;20472;-38
2023/08/01 02:46:23;;;;;;;7.63;3.05;;;15.70;99.90;;;;;;5053771;28;20040;-37
2023/08/01 02:48:49;;;;;;;4.32;2.33;;;15.70;99.90;;;;;;5049263;28;20032;-36
2023/08/01 02:51:14;;;;;;;7.22;2.50;;;15.60;99.90;;;;;;5053721;28;20035;-36
2023/08/01 02:53:41;;;;;;;5.57;2.03;;;15.60;99.90;;;;;;5042048;28;20370;-36
2023/08/01 02:56:08;;;;;;;6.63;1.55;;;15.60;99.90;;;;;;5072637;28;20029;-37
2023/08/01 02:58:34;;;;;;;5.43;2.25;;;15.70;99.90;;;;;;5072225;28;20021;-37
2023/08/01 03:01:01;;;;;;;11.00;3.00;;;15.80;99.90;;;;;;5053665;28;20029;-37
2023/08/01 03:03:26;;;;;;;6.90;3.85;;;15.90;99.90;;;;;;5066514;28;20089;-37
2023/08/01 03:05:52;;;;;;;9.48;4.25;;;15.90;99.90;;;;;;5058556;28;20032;-36
2023/08/01 03:08:18;;;;;;;9.18;4.07;;;16.00;99.90;;;;;;5053987;28;20067;-37
2023/08/01 03:10:44;;;;;;;8.00;4.57;;;16.00;99.90;;;;;;5052451;28;20025;-37
2023/08/01 03:13:10;;;;;;;9.88;3.90;;;16.10;99.90;;;;;;5065212;28;20498;-36
2023/08/01 03:15:36;;;;;;;12.05;4.22;;;16.10;99.90;;;;;;5063698;28;20021;-36
2023/08/01 03:18:02;;;;;;;11.77;3.17;;;16.10;99.90;;;;;;5052591;28;20074;-37
2023/08/01 03:20:28;;;;;;;12.27;3.90;;;16.20;99.90;;;;;;5053411;28;20092;-36
2023/08/01 03:22:54;;;;;;;9.50;3.17;;;16.20;99.90;;;;;;5050988;28;20032;-36
2023/08/01 03:25:19;;;;;;;9.18;3.80;;;16.10;99.90;;;;;;5050743;28;20017;-36
2023/08/01 03:27:45;;;;;;;5.25;2.70;;;16.10;99.90;;;;;;5053580;28;20114;-36
2023/08/01 03:30:11;;;;;;;12.10;3.33;;;16.10;99.90;;;;;;5052330;28;20141;-35
2023/08/01 03:32:37;;;;;;;13.30;3.28;;;16.10;99.90;;;;;;5073417;28;20025;-36
2023/08/01 03:35:04;;;;;;;18.50;4.60;;;16.00;99.90;;;;;;5071624;28;20024;-37
2023/08/01 03:37:30;;;;;;;14.13;4.15;;;16.00;99.90;;;;;;5045234;28;20017;-36
2023/08/01 03:39:55;;;;;;;12.30;3.78;;;16.00;99.90;;;;;;5051163;28;20111;-39
2023/08/01 03:42:21;;;;;;;6.97;2.45;;;15.90;99.90;;;;;;5066316;28;20093;-36
2023/08/01 03:44:47;;;;;;;5.28;2.60;;;15.90;99.90;;;;;;5060755;28;20028;-36
2023/08/01 03:47:12;;;;;;;11.02;3.08;;;15.90;99.90;;;;;;5073506;28;20461;-35
2023/08/01 03:49:38;;;;;;;8.68;2.85;;;15.90;99.90;;;;;;5073206;28;20538;-36
2023/08/01 03:52:05;;;;;;;13.75;3.45;;;15.90;99.90;;;;;;5059694;28;20033;-36
2023/08/01 03:54:31;;;;;;;10.32;2.10;;;15.90;99.90;;;;;;5048748;28;20059;-36
2023/08/01 03:56:57;;;;;;;12.65;3.70;;;15.90;99.90;;;;;;5054808;28;20470;-36
2023/08/01 03:59:23;;;;;;;6.53;2.75;;;15.90;99.90;;;;;;5051174;28;20053;-38
2023/08/01 04:01:48;;;;;;;6.88;2.70;;;15.90;99.90;;;;;;5067848;28;20086;-36
2023/08/01 04:04:14;;;;;;;10.88;3.55;;;15.90;99.90;;;;;;5053258;28;20509;-36
2023/08/01 04:06:40;;;;;;;8.25;3.13;;;15.90;99.90;;;;;;5062701;28;20021;-36
2023/08/01 04:09:06;;;;;;;6.65;2.60;;;15.90;99.90;;;;;;5047956;28;20524;-41
2023/08/01 04:11:32;;;;;;;13.13;3.35;;;16.00;99.90;;;;;;5058749;28;20024;-36
2023/08/01 04:13:58;;;;;;;13.40;4.50;;;16.00;99.90;;;;;;5059353;28;20032;-35
2023/08/01 04:16:23;;;;;;;10.93;3.75;;;16.00;99.90;;;;;;5060360;28;20017;-36
2023/08/01 04:18:49;;;;;;;8.32;2.63;;;16.00;99.90;;;;;;5057531;28;20522;-36
2023/08/01 04:21:15;;;;;;;16.50;3.85;;;16.10;99.90;;;;;;5068789;28;20036;-36
2023/08/01 04:23:41;;;;;;;16.42;3.00;;;16.10;99.90;;;;;;5053940;28;20033;-37
2023/08/01 04:26:07;;;;;;;12.13;3.05;;;16.10;99.90;;;;;;5063774;28;20040;-36
2023/08/01 04:28:34;;;;;;;14.13;3.83;;;16.10;99.90;;;;;;5056914;28;20048;-36
2023/08/01 04:31:00;;;;;;;8.27;2.80;;;16.10;99.90;;;;;;5050676;28;20033;-36
2023/08/01 04:33:25;;;;;;;5.25;3.10;;;16.10;99.90;;;;;;5043349;28;20025;-36
2023/08/01 04:35:51;;;;;;;5.53;3.40;;;16.20;99.90;;;;;;5066590;28;20122;-36
2023/08/01 04:38:17;;;;;;;17.42;4.00;;;16.20;99.90;;;;;;5057570;28;20025;-36
2023/08/01 04:40:43;;;;;;;11.73;3.53;;;16.30;99.90;;;;;;5050690;28;20116;-38
2023/08/01 04:43:09;;;;;;;11.38;3.53;;;16.20;99.90;;;;;;5050058;28;20033;-35
2023/08/01 04:45:36;;;;;;;17.67;2.90;;;16.30;99.90;;;;;;5053296;28;20041;-53
2023/08/01 04:48:01;;;;;;;13.82;3.95;;;16.30;99.90;;;;;;5052482;28;20040;-50
2023/08/01 04:50:27;;;;;;;11.88;2.72;;;16.40;99.90;;;;;;5072497;28;20036;-53
2023/08/01 04:52:53;;;;;;;11.55;3.70;;;16.40;99.90;;;;;;5061481;28;20057;-53
2023/08/01 04:55:18;;;;;;;11.50;3.55;;;16.40;99.90;;;;;;5052644;28;20017;-53
2023/08/01 04:57:44;;;;;;;11.38;2.90;;;16.40;99.90;;;;;;5061440;28;20017;-51
2023/08/01 05:00:11;;;;;;;7.68;2.75;;;16.40;99.90;;;;;;5051007;28;20029;-54
2023/08/01 05:02:36;;;;;;;9.82;3.42;;;16.40;99.90;;;;;;5051761;28;20376;-53
2023/08/01 05:05:03;;;;;;;12.82;3.38;;;16.50;99.90;;;;;;5058757;28;20116;-50
2023/08/01 05:07:29;;;;;;;11.17;2.87;;;16.50;99.90;;;;;;5053861;28;20075;-54
2023/08/01 05:09:55;;;;;;;4.88;2.83;;;16.40;99.90;;;;;;5051001;28;20044;-52
2023/08/01 05:12:21;;;;;;;9.27;2.85;;;16.40;99.90;;;;;;5054992;28;20036;-50
2023/08/01 05:14:46;;;;;;;12.65;3.97;;;16.50;99.90;;;;;;5058162;28;20478;-54
2023/08/01 05:17:12;;;;;;;13.13;3.70;;;16.50;99.90;;;;;;5052703;28;20513;-45
2023/08/01 05:19:38;;;;;;;11.38;3.55;;;16.50;99.90;;;;;;5054980;28;20059;-51
2023/08/01 05:22:04;;;;;;;9.32;3.15;;;16.50;99.90;;;;;;5054599;28;20486;-55
2023/08/01 05:24:29;;;;;;;11.57;3.42;;;16.50;99.90;;;;;;5055220;28;20032;-52
2023/08/01 05:26:55;;;;;;;11.00;4.22;;;16.50;99.90;;;;;;5055419;28;20117;-54
2023/08/01 05:29:21;;;;;;;13.13;3.38;;;16.50;99.90;;;;;;5055880;28;20033;-54
2023/08/01 05:31:46;;;;;;;13.93;3.20;;;16.50;99.90;;;;;;5055142;28;20025;-54
2023/08/01 05:34:12;;;;;;;8.40;3.20;;;16.60;99.90;;;;;;5061411;28;20013;-46
2023/08/01 05:36:38;;;;;;;9.13;2.72;;;16.60;99.90;;;;;;5053499;28;20021;-49
2023/08/01 05:39:03;;;;;;;13.05;2.90;;;16.60;99.90;;;;;;5054442;28;20032;-36
2023/08/01 05:41:29;;;;;;;7.75;2.65;;;16.60;99.90;;;;;;5053801;28;20497;-36
2023/08/01 05:43:55;;;;;;;7.93;2.40;;;16.70;99.90;;;;;;5051324;28;20048;-36
2023/08/01 05:46:21;;;;;;;15.38;2.92;;;16.70;99.90;;;;;;5051412;28;20036;-36
2023/08/01 05:48:47;;;;;;;6.85;2.83;;;16.60;99.90;;;;;;5054779;28;20025;-37
2023/08/01 05:51:12;;;;;;;11.07;2.53;;;16.70;99.90;;;;;;5051428;28;20389;-36
2023/08/01 05:53:38;;;;;;;9.73;2.53;;;16.60;99.90;;;;;;5054628;28;20056;-36
2023/08/01 05:56:04;;;;;;;11.18;2.70;;;16.60;99.90;;;;;;5051338;28;20021;-35
2023/08/01 05:58:30;;;;;;;10.07;2.22;;;16.70;99.90;;;;;;5058495;28;20396;-37
2023/08/01 06:00:56;;;;;;;11.95;2.88;;;16.70;99.90;;;;;;5049978;28;20039;-39
2023/08/01 06:03:22;;;;;;;11.23;3.88;;;16.60;99.90;;;;;;5043510;28;20055;-37
2023/08/01 06:05:51;;;;;;;8.88;2.83;;;16.70;99.90;;;;;;5043825;28;20025;-37
2023/08/01 06:08:16;;;;;;;8.57;2.53;;;16.80;99.90;;;;;;5054297;28;20497;-36
2023/08/01 06:10:42;;;;;;;6.80;2.20;;;16.80;99.90;;;;;;5051768;28;20032;-36
2023/08/01 06:13:08;;;;;;;7.50;2.33;;;16.90;99.90;;;;;;5054519;28;20026;-37
2023/08/01 06:15:34;;;;;;;15.82;2.65;;;16.90;99.90;;;;;;5053891;28;20032;-36
2023/08/01 06:17:59;;;;;;;8.65;2.17;;;17.00;99.90;;;;;;5055375;28;20029;-37
2023/08/01 06:20:25;;;;;;;11.45;3.10;;;16.90;99.90;;;;;;5074246;28;20159;-37
2023/08/01 06:22:51;;;;;;;11.18;2.75;;;17.00;99.90;;;;;;5051098;28;20083;-35
2023/08/01 06:25:17;;;;;;;9.85;2.83;;;17.50;99.90;;;;;;5041341;28;20480;-40
2023/08/01 06:27:42;;;;;;;11.65;2.45;;;18.30;99.90;;;;;;5053393;28;20025;-38
2023/08/01 06:30:08;;;;;;;5.22;2.28;;;19.20;99.90;;;;;;5054576;28;20433;-39
2023/08/01 06:32:34;;;;;;;7.70;2.78;;;19.30;99.90;;;;;;5053609;28;20489;-36
2023/08/01 06:35:00;;;;;;;4.22;2.00;;;19.20;99.90;;;;;;5054956;28;20474;-39
2023/08/01 06:37:25;;;;;;;4.97;1.95;;;18.90;99.90;;;;;;5041335;28;20013;-38
2023/08/01 06:39:51;;;;;;;7.10;2.35;;;18.50;99.90;;;;;;5044962;28;20022;-38
2023/08/01 06:42:17;;;;;;;8.40;2.65;;;18.60;99.90;;;;;;5047557;28;20024;-38
2023/08/01 06:44:43;;;;;;;11.15;2.33;;;19.90;99.90;;;;;;5045340;28;20033;-52
2023/08/01 06:47:09;;;;;;;7.78;2.40;;;20.80;99.90;;;;;;5040250;28;20032;-53
2023/08/01 06:49:34;;;;;;;4.28;1.98;;;21.20;99.90;;;;;;5042580;28;20033;-54
2023/08/01 06:52:00;;;;;;;4.55;1.73;;;22.00;99.90;;;;;;5055224;28;20495;-54
2023/08/01 06:54:26;;;;;;;6.05;1.63;;;22.70;99.90;;;;;;5060449;28;20036;-54
2023/08/01 06:56:51;;;;;;;6.20;2.22;;;22.90;99.90;;;;;;5071308;28;20099;-54
2023/08/01 06:59:17;;;;;;;6.05;1.80;;;22.50;99.90;;;;;;5074209;28;20109;-54
2023/08/01 07:01:43;;;;;;;6.43;1.75;;;21.70;99.90;;;;;;5056945;28;20482;-54
2023/08/01 07:04:10;;;;;;;7.75;2.33;;;20.80;99.90;;;;;;5055038;28;20028;-54
2023/08/01 07:06:36;;;;;;;11.02;2.22;;;19.80;99.90;;;;;;5047959;28;20021;-54
2023/08/01 07:09:01;;;;;;;5.80;1.92;;;19.50;99.90;;;;;;5047848;28;20104;-52
2023/08/01 07:11:27;;;;;;;6.90;2.05;;;19.40;99.90;;;;;;5052221;28;20033;-55
2023/08/01 07:13:53;;;;;;;4.97;1.70;;;19.20;99.90;;;;;;5052592;28;20052;-55
2023/08/01 07:16:18;;;;;;;3.65;1.85;;;19.40;99.90;;;;;;5048111;28;20154;-55
2023/08/01 07:18:44;;;;;;;4.88;1.85;;;20.30;99.90;;;;;;5048830;28;20107;-55
2023/08/01 07:21:10;;;;;;;10.50;2.15;;;20.90;99.90;;;;;;5056231;28;20032;-54
2023/08/01 07:23:36;;;;;;;6.95;1.73;;;20.70;99.90;;;;;;5035768;28;20125;-60
2023/08/01 07:26:02;;;;;;;3.53;1.70;;;19.90;99.90;;;;;;5050074;28;20095;-56
2023/08/01 07:28:28;;;;;;;8.10;1.60;;;19.00;99.90;;;;;;5046551;28;20025;-50
2023/08/01 07:31:05;;;;;;;5.85;2.60;;;18.40;99.90;;;;;;5051872;28;20061;-53
2023/08/01 07:33:32;;;;;;;7.25;2.10;;;18.00;99.90;;;;;;5050853;28;20540;-53
2023/08/01 07:35:59;;;;;;;8.97;2.90;;;17.90;99.90;;;;;;5038592;28;20482;-55
2023/08/01 07:38:26;;;;;;;10.48;2.85;;;18.10;99.90;;;;;;5051261;28;20268;-54
2023/08/01 07:40:52;;;;;;;;;;;18.30;99.90;;;;;;5034435;28;20040;-52
2023/08/01 07:43:18;;;;;;;5.35;1.83;;;18.40;99.90;;;;;;5050080;28;19912;-54
2023/08/01 07:45:44;;;;;;;11.68;2.72;;;18.50;99.90;;;;;;5050758;28;20021;-56
2023/08/01 07:48:10;;;;;;;9.88;3.25;;;18.50;99.90;;;;;;5051098;28;20037;-54
2023/08/01 07:50:36;;;;;;;6.82;1.77;;;18.70;99.90;;;;;;5049737;28;20558;-55
2023/08/01 07:53:01;;;;;;;5.30;2.60;;;18.90;99.90;;;;;;5048585;28;20554;-56
2023/08/01 07:55:27;;;;;;;11.05;1.73;;;19.10;99.90;;;;;;5050127;28;20033;-55
2023/08/01 07:57:53;;;;;;;7.40;2.10;;;19.20;99.90;;;;;;5047954;28;20029;-55
2023/08/01 08:00:19;;;;;;;13.23;3.15;;;19.30;99.90;;;;;;5047191;28;20025;-52
2023/08/01 08:02:45;;;;;;;5.22;1.35;;;19.50;99.90;;;;;;5046852;28;20036;-54
2023/08/01 08:05:11;;;;;;;4.18;1.35;;;19.70;99.90;;;;;;5052504;28;20043;-55
2023/08/01 08:07:37;;;;;;;6.45;1.40;;;19.70;99.90;;;;;;5052960;28;20037;-55
2023/08/01 08:10:05;;;;;;;6.55;2.30;;;19.70;99.90;;;;;;5052547;28;20193;-54
2023/08/01 08:12:31;;;;;;;4.30;1.42;;;19.40;99.90;;;;;;5052592;28;20028;-52
2023/08/01 08:14:56;;;;;;;4.25;1.38;;;19.40;99.90;;;;;;5051971;28;20124;-53
2023/08/01 08:17:22;;;;;;;5.00;1.63;;;19.40;99.90;;;;;;5052906;28;20021;-54
2023/08/01 08:19:48;;;;;;;2.95;1.60;;;19.50;99.90;;;;;;5052850;28;20061;-55
2023/08/01 08:22:13;;;;;;;1.60;1.50;;;19.40;99.90;;;;;;5053029;28;20029;-54
2023/08/01 08:24:39;;;;;;;5.40;1.33;;;19.30;99.90;;;;;;5051357;28;20470;-54
2023/08/01 08:27:05;;;;;;;3.80;1.50;;;19.30;99.90;;;;;;5052588;28;20029;-56
2023/08/01 08:29:32;;;;;;;5.38;1.73;;;19.50;99.90;;;;;;5052826;28;20082;-55
2023/08/01 08:31:58;;;;;;;6.37;1.83;;;19.70;99.90;;;;;;5033173;28;20033;-53
2023/08/01 08:34:24;;;;;;;6.07;1.33;;;19.80;99.90;;;;;;5032741;28;20324;-52
2023/08/01 08:36:52;;;;;;;5.07;1.25;;;19.90;99.90;;;;;;5032762;28;20025;-53
2023/08/01 08:39:18;;;;;;;16.63;2.28;;;19.80;99.90;;;;;;5032736;28;20493;-52
2023/08/01 08:41:49;;;;;;;3.58;1.42;;;19.80;99.90;;;;;;5033346;28;20115;-53
2023/08/01 08:44:16;;;;;;;1.85;0.98;;;20.00;99.90;;;;;;5045390;28;20043;-54
2023/08/01 08:46:43;;;;;;;;;;;20.20;99.90;;;;;;5056086;28;20033;-54
2023/08/01 08:49:10;;;;;;;9.27;1.67;;;20.40;99.90;;;;;;5056602;28;19909;-53
2023/08/01 08:51:40;;;;;;;5.63;1.80;;;20.40;99.90;;;;;;5056672;28;20117;-54
2023/08/01 08:54:08;;;;;;;13.73;1.98;;;20.10;99.90;;;;;;5056306;28;20053;-53
2023/08/01 08:56:35;;;;;;;5.75;1.20;;;19.80;99.90;;;;;;5056437;28;20035;-42
2023/08/01 08:59:01;;;;;;;4.55;1.20;;;19.60;99.90;;;;;;5056282;28;20022;-42
2023/08/01 09:01:27;;;;;;;17.50;1.65;;;19.40;99.90;;;;;;5056678;28;20524;-44
2023/08/01 09:03:53;;;;;;;9.63;1.48;;;19.30;99.90;;;;;;5055391;28;20117;-42
2023/08/01 09:06:25;;;;;;;10.80;2.38;;;19.30;99.90;;;;;;5056585;28;20033;-42
2023/08/01 09:08:58;;;;;;;3.85;1.27;;;19.00;99.90;;;;;;5042799;28;20614;-42
2023/08/01 09:11:25;;;;;;;5.57;1.20;;;18.70;99.90;;;;;;5042949;28;20436;-43
2023/08/01 09:13:50;;;;;;;5.13;1.27;;;18.50;99.90;;;;;;5040169;28;20470;-43
2023/08/01 09:16:16;;;;;;;6.78;1.70;;;18.50;99.90;;;;;;5046766;28;20107;-44
2023/08/01 09:18:52;;;;;;;8.40;2.38;;;18.50;99.90;;;;;;5040939;28;20552;-42
2023/08/01 09:21:22;;;;;;;5.97;1.58;;;18.50;99.90;;;;;;5037999;28;20074;-41
2023/08/01 09:23:48;;;;;;;4.20;1.98;;;18.40;99.90;;;;;;5055871;28;20017;-49
2023/08/01 09:26:15;;;;;;;6.13;1.50;;;18.50;99.90;;;;;;5055940;28;20055;-42
2023/08/01 09:28:41;;;;;;;9.90;1.30;;;18.80;99.90;;;;;;5055897;28;20029;-45
2023/08/01 09:31:06;;;;;;;7.25;1.90;;;19.30;99.90;;;;;;5055708;28;20768;-47
2023/08/01 09:33:42;;;;;;;3.70;1.25;;;19.50;99.90;;;;;;5052359;28;20009;-47
2023/08/01 09:36:08;;;;;;;2.42;1.20;;;19.70;99.90;;;;;;5035782;28;20029;-42
2023/08/01 09:38:37;;;;;;;10.45;2.00;;;19.90;99.90;;;;;;5036372;28;20013;-45
2023/08/01 09:41:06;;;;;;;1.60;0.90;;;19.80;99.90;;;;;;5035692;28;20033;-43
2023/08/01 09:43:36;;;;;;;9.38;1.38;;;19.80;99.90;;;;;;5035932;28;20091;-41
2023/08/01 09:46:03;;;;;;;9.85;1.20;;;19.50;99.90;;;;;;5047812;28;20478;-42
2023/08/01 09:48:29;;;;;;;11.05;1.23;;;19.50;99.90;;;;;;5055461;28;20028;-41
2023/08/01 09:51:10;;;;;;;5.30;1.27;;;19.40;99.90;;;;;;5055528;28;20032;-42
2023/08/01 09:53:47;;;;;;;3.72;1.33;;;19.80;99.90;;;;;;5055240;28;20553;-50
2023/08/01 09:56:16;;;;;;;5.18;1.25;;;20.10;99.90;;;;;;5053468;28;20381;-39
2023/08/01 09:58:43;;;;;;;1.92;0.80;;;20.00;99.90;;;;;;5055292;28;20024;-42
2023/08/01 10:01:08;;;;;;;10.43;2.23;;;20.00;99.90;;;;;;5055311;28;20021;-41
2023/08/01 10:03:35;;;;;;;10.90;1.70;;;19.90;99.90;;;;;;5052210;28;20036;-41
2023/08/01 10:06:01;;;;;;;6.38;1.45;;;19.40;99.90;;;;;;5035240;28;20025;-39
2023/08/01 10:08:29;;;;;;;7.85;1.27;;;19.00;99.90;;;;;;5049441;28;20500;-43
2023/08/01 10:10:56;;;;;;;5.15;1.48;;;18.90;99.90;;;;;;5054786;28;20096;-41
2023/08/01 10:13:24;;;;;;;;;;;19.20;99.90;;;;;;5053155;28;20021;-42
2023/08/01 10:15:51;;;;;;;5.03;1.02;;;19.30;99.90;;;;;;5055212;28;19909;-54
2023/08/01 10:18:17;;;;;;;2.90;0.90;;;19.40;99.90;;;;;;5072353;28;20481;-52
2023/08/01 10:20:44;;;;;;;4.18;1.30;;;19.60;99.90;;;;;;5074972;28;20074;-55
2023/08/01 10:23:11;;;;;;;2.63;1.10;;;19.70;99.90;;;;;;5073544;28;20543;-52
2023/08/01 10:25:38;;;;;;;6.60;1.10;;;19.60;99.90;;;;;;5054106;28;20029;-54
2023/08/01 10:28:05;;;;;;;7.25;2.33;;;19.20;99.90;;;;;;5054778;28;20028;-53
2023/08/01 10:30:31;;;;;;;10.82;1.27;;;19.10;99.90;;;;;;5053749;28;20478;-56
2023/08/01 10:32:59;;;;;;;4.97;1.20;;;19.50;99.90;;;;;;5054681;28;20025;-55
2023/08/01 10:35:52;;;;;;;4.05;1.25;;;19.90;99.90;;;;;;5052996;28;20529;-53
2023/08/01 10:38:17;;;;;;;6.03;1.75;;;20.50;99.90;;;;;;5045411;28;20371;-55
2023/08/01 10:40:43;;;;;;;2.38;1.08;;;20.70;99.90;;;;;;5035132;28;20029;-54
2023/08/01 10:43:22;;;;;;;4.68;0.93;;;20.30;99.90;;;;;;5051692;28;20029;-53
2023/08/01 10:45:48;;;;;;;4.97;1.83;;;20.00;99.90;;;;;;5053403;28;20088;-54
2023/08/01 10:48:15;;;;;;;1.90;1.15;;;19.70;99.90;;;;;;5054269;28;20033;-53
2023/08/01 10:50:40;;;;;;;2.90;0.87;;;19.50;99.90;;;;;;5054546;28;20469;-54
2023/08/01 10:53:08;;;;;;;3.40;0.90;;;19.50;99.90;;;;;;5054027;28;20072;-54
2023/08/01 10:55:40;;;;;;;;;;;19.30;99.90;;;;;;5054561;28;20017;-53
2023/08/01 10:58:06;;;;;;;4.55;1.30;;;19.20;99.90;;;;;;5054079;28;19962;-53
2023/08/01 11:00:32;;;;;;;6.25;1.40;;;19.10;99.90;;;;;;5054073;28;20029;-54
2023/08/01 11:02:57;;;;;;;8.48;2.20;;;19.10;99.90;;;;;;5046924;28;20085;-55
2023/08/01 11:05:25;;;;;;;6.80;2.03;;;19.10;99.90;;;;;;5046692;28;20083;-54
2023/08/01 11:07:59;;;;;;;3.47;1.10;;;19.10;99.90;;;;;;5053224;28;20531;-55
2023/08/01 11:10:30;;;;;;;4.13;1.02;;;19.20;99.90;;;;;;5033993;28;20036;-53
2023/08/01 11:12:56;;;;;;;6.70;1.52;;;19.50;99.90;;;;;;5035376;28;20116;-54
2023/08/01 11:15:22;;;;;;;5.05;1.52;;;20.00;99.90;;;;;;5045851;28;20071;-52
2023/08/01 11:17:52;;;;;;;10.55;1.50;;;20.30;99.90;;;;;;5049401;28;20021;-50
2023/08/01 11:20:21;;;;;;;7.05;1.13;;;20.40;99.90;;;;;;5045286;28;20537;-54
2023/08/01 11:23:00;;;;;;;5.68;1.55;;;20.30;99.90;;;;;;5038429;28;20515;-52
2023/08/01 11:25:45;;;;;;;2.30;1.10;;;20.00;99.90;;;;;;5037203;28;20028;-53
2023/08/01 11:28:13;;;;;;;3.28;1.05;;;19.80;99.90;;;;;;5053656;28;20036;-55
2023/08/01 11:30:40;;;;;;;3.55;1.30;;;19.80;99.90;;;;;;5052198;28;20120;-50
2023/08/01 11:33:16;;;;;;;11.18;1.33;;;19.60;99.90;;;;;;5053241;28;20017;-51
2023/08/01 11:35:42;;;;;;;9.75;1.30;;;19.60;99.90;;;;;;5052240;28;20056;-39
2023/08/01 11:38:08;;;;;;;6.15;1.13;;;19.90;99.90;;;;;;5052529;28;20398;-39
2023/08/01 11:40:34;;;;;;;3.28;1.30;;;20.20;99.90;;;;;;5053418;28;20044;-38
2023/08/01 11:43:00;;;;;;;2.55;1.00;;;20.20;99.90;;;;;;5042852;28;20026;-40
2023/08/01 11:45:26;;;;;;;8.32;1.10;;;20.10;99.90;;;;;;5046021;28;20039;-38
2023/08/01 11:47:51;;;;;;;9.95;1.90;;;19.90;99.90;;;;;;5052126;28;20025;-52
2023/08/01 11:50:24;;;;;;;5.75;1.30;;;19.50;99.90;;;;;;5053072;28;20092;-52
2023/08/01 11:52:50;;;;;;;14.38;1.33;;;19.50;99.90;;;;;;5053078;28;20393;-54
2023/08/01 11:55:20;;;;;;;6.60;1.65;;;19.60;99.90;;;;;;5039055;28;20077;-55
2023/08/01 11:57:57;;;;;;;6.90;1.67;;;19.60;99.90;;;;;;5033168;28;20028;-54
2023/08/01 12:00:27;;;;;;;6.60;1.17;;;19.80;99.90;;;;;;5033544;28;20022;-54
2023/08/01 12:03:13;;;;;;;10.13;1.40;;;20.20;99.90;;;;;;5032988;28;20268;-40
2023/08/01 12:05:41;;;;;;;10.07;1.70;;;20.30;99.90;;;;;;5033131;28;20089;-40
2023/08/01 12:08:14;;;;;;;5.07;1.55;;;20.10;99.90;;;;;;5052639;28;20028;-40
2023/08/01 12:10:45;;;;;;;10.05;2.03;;;19.90;99.90;;;;;;5051951;28;20434;-40
2023/08/01 12:13:21;;;;;;;7.07;1.80;;;19.40;99.90;;;;;;5052906;28;20021;-40
2023/08/01 12:15:52;;;;;;;6.07;1.40;;;19.10;99.90;;;;;;5047002;28;20021;-38
2023/08/01 12:18:26;;;;;;;3.75;1.15;;;18.80;99.90;;;;;;5052364;28;20466;-43
2023/08/01 12:20:52;;;;;;;7.55;1.38;;;18.80;99.90;;;;;;5052705;28;20096;-44
2023/08/01 12:23:18;;;;;;;7.13;1.13;;;19.20;99.90;;;;;;5052967;28;20017;-47
2023/08/01 12:25:44;;;;;;;3.60;1.10;;;19.50;99.90;;;;;;5052605;28;20044;-39
2023/08/01 12:28:10;;;;;;;4.32;1.10;;;19.80;99.90;;;;;;5047692;28;20474;-40
2023/08/01 12:30:35;;;;;;;1.80;1.10;;;20.20;99.90;;;;;;5037437;28;20021;-41
2023/08/01 12:33:02;;;;;;;2.78;0.98;;;20.50;99.90;;;;;;5041054;28;20416;-39
2023/08/01 12:35:28;;;;;;;1.90;0.77;;;20.50;99.90;;;;;;5042766;28;20056;-42
2023/08/01 12:37:53;;;;;;;7.05;1.45;;;20.60;99.90;;;;;;5036585;28;20485;-41
2023/08/01 12:40:19;;;;;;;5.28;1.00;;;20.80;99.90;;;;;;5043244;28;20024;-40
2023/08/01 12:42:47;;;;;;;2.17;0.95;;;21.10;99.90;;;;;;5052550;28;20029;-39